createdAt,value
2023-05-07T00:01:20.107Z,10.20
2023-05-07T00:03:46.965Z,10.60
2023-05-07T00:06:13.949Z,11.35
2023-05-07T00:08:40.382Z,10.80
2023-05-07T00:11:07.009Z,11.45
2023-05-07T00:13:36.262Z,11.07
2023-05-07T00:16:04.174Z,11.35
2023-05-07T00:18:30.780Z,11.40
2023-05-07T00:20:57.357Z,12.15
2023-05-07T00:23:24.236Z,11.90
2023-05-07T00:25:50.655Z,11.88
2023-05-07T00:28:17.079Z,11.80
2023-05-07T00:30:43.602Z,12.35
2023-05-07T00:33:10.145Z,12.30
2023-05-07T00:35:36.610Z,12.40
2023-05-07T00:38:03.115Z,11.82
2023-05-07T00:40:29.567Z,12.00
2023-05-07T00:42:59.124Z,12.13
2023-05-07T00:45:29.856Z,12.25
2023-05-07T00:47:59.265Z,12.65
2023-05-07T00:50:27.593Z,13.60
2023-05-07T00:52:54.545Z,12.88
2023-05-07T00:55:21.264Z,12.45
2023-05-07T00:57:47.812Z,13.48
2023-05-07T01:00:14.819Z,13.52
2023-05-07T01:02:42.029Z,12.82
2023-05-07T01:05:12.451Z,13.70
2023-05-07T01:07:41.625Z,13.40
2023-05-07T01:10:09.988Z,13.80
2023-05-07T01:12:38.571Z,13.43
2023-05-07T01:15:06.564Z,13.20
2023-05-07T01:17:37.527Z,12.98
2023-05-07T01:20:05.994Z,12.13
2023-05-07T01:22:34.609Z,13.50
2023-05-07T01:25:02.570Z,13.45
2023-05-07T01:27:29.192Z,13.95
2023-05-07T01:29:56.569Z,15.07
2023-05-07T01:32:30.109Z,13.82
2023-05-07T01:34:58.479Z,13.77
2023-05-07T01:37:26.519Z,14.35
2023-05-07T01:39:54.139Z,14.07
2023-05-07T01:42:20.815Z,13.32
2023-05-07T01:44:47.425Z,14.20
2023-05-07T01:47:15.113Z,13.85
2023-05-07T01:49:43.060Z,13.57
2023-05-07T01:52:11.655Z,14.25
2023-05-07T01:54:38.391Z,13.20
2023-05-07T01:57:04.766Z,13.40
2023-05-07T01:59:31.201Z,15.43
2023-05-07T02:01:57.604Z,14.35
2023-05-07T02:04:24.246Z,14.10
2023-05-07T02:06:50.878Z,14.38
2023-05-07T02:09:18.716Z,14.27
2023-05-07T02:11:45.369Z,14.45
2023-05-07T02:14:12.026Z,15.45
2023-05-07T02:16:38.476Z,15.48
2023-05-07T02:19:04.872Z,15.30
2023-05-07T02:21:31.381Z,14.70
2023-05-07T02:23:57.859Z,14.48
2023-05-07T02:26:24.206Z,15.93
2023-05-07T02:28:50.734Z,15.48
2023-05-07T02:31:17.139Z,14.90
2023-05-07T02:33:43.609Z,15.23
2023-05-07T02:36:10.963Z,14.68
2023-05-07T02:38:37.722Z,15.05
2023-05-07T02:41:04.245Z,15.32
2023-05-07T02:43:30.668Z,14.55
2023-05-07T02:46:03.928Z,14.90
2023-05-07T02:48:30.513Z,15.77
2023-05-07T02:50:56.929Z,14.60
2023-05-07T02:53:23.460Z,15.88
2023-05-07T02:55:49.990Z,15.50
2023-05-07T02:58:16.428Z,14.98
2023-05-07T03:00:42.894Z,15.75
2023-05-07T03:03:09.442Z,15.52
2023-05-07T03:05:36.033Z,15.68
2023-05-07T03:08:02.497Z,15.52
2023-05-07T03:10:28.935Z,15.80
2023-05-07T03:12:55.368Z,14.85
2023-05-07T03:15:22.636Z,16.52
2023-05-07T03:17:49.580Z,15.23
2023-05-07T03:20:16.370Z,15.70
2023-05-07T03:22:43.140Z,15.95
2023-05-07T03:25:10.317Z,15.27
2023-05-07T03:27:36.819Z,15.60
2023-05-07T03:30:03.871Z,15.82
2023-05-07T03:32:30.252Z,16.27
2023-05-07T03:34:56.810Z,16.00
2023-05-07T03:37:23.275Z,15.93
2023-05-07T03:39:49.632Z,17.50
2023-05-07T03:42:16.128Z,18.23
2023-05-07T03:44:42.558Z,16.30
2023-05-07T03:47:09.008Z,15.75
2023-05-07T03:49:35.781Z,16.70
2023-05-07T03:52:02.284Z,16.48
2023-05-07T03:54:28.732Z,17.60
2023-05-07T03:56:55.245Z,16.77
2023-05-07T03:59:21.689Z,16.38
2023-05-07T04:01:48.159Z,16.63
2023-05-07T04:04:15.123Z,15.63
2023-05-07T04:06:42.150Z,15.57
2023-05-07T04:09:08.728Z,16.30
2023-05-07T04:11:36.957Z,16.05
2023-05-07T04:14:03.360Z,16.55
2023-05-07T04:16:29.810Z,15.65
2023-05-07T04:18:56.255Z,16.13
2023-05-07T04:21:22.666Z,16.30
2023-05-07T04:23:49.515Z,15.32
2023-05-07T04:26:16.928Z,16.42
2023-05-07T04:28:43.425Z,15.48
2023-05-07T04:31:09.948Z,15.85
2023-05-07T04:33:36.351Z,15.55
2023-05-07T04:36:04.882Z,16.67
2023-05-07T04:38:32.429Z,16.73
2023-05-07T04:41:03.799Z,15.55
2023-05-07T04:43:30.554Z,16.20
2023-05-07T04:45:56.957Z,15.40
2023-05-07T04:48:23.373Z,15.82
2023-05-07T04:50:50.833Z,16.52
2023-05-07T04:53:18.600Z,16.02
2023-05-07T04:55:46.166Z,15.00
2023-05-07T04:58:13.218Z,16.23
2023-05-07T05:00:40.271Z,15.68
2023-05-07T05:03:09.770Z,15.63
2023-05-07T05:05:36.313Z,15.43
2023-05-07T05:08:02.756Z,15.93
2023-05-07T05:10:29.191Z,15.75
2023-05-07T05:12:55.860Z,15.60
2023-05-07T05:15:22.566Z,15.20
2023-05-07T05:17:49.066Z,16.48
2023-05-07T05:20:15.843Z,15.63
2023-05-07T05:22:43.307Z,16.02
2023-05-07T05:25:10.045Z,15.88
2023-05-07T05:27:36.799Z,15.88
2023-05-07T05:30:04.252Z,15.93
2023-05-07T05:32:30.624Z,16.25
2023-05-07T05:34:57.026Z,16.65
2023-05-07T05:37:23.727Z,16.58
2023-05-07T05:39:50.260Z,15.60
2023-05-07T05:42:16.729Z,15.95
2023-05-07T05:44:43.074Z,15.85
2023-05-07T05:47:09.476Z,16.17
2023-05-07T05:49:36.126Z,16.50
2023-05-07T05:52:02.746Z,16.90
2023-05-07T05:54:29.210Z,16.15
2023-05-07T05:56:55.760Z,16.10
2023-05-07T05:59:22.298Z,17.05
2023-05-07T06:01:48.830Z,16.33
2023-05-07T06:04:15.183Z,16.25
2023-05-07T06:06:41.704Z,15.82
2023-05-07T06:09:08.097Z,16.90
2023-05-07T06:11:34.473Z,15.88
2023-05-07T06:14:01.193Z,15.85
2023-05-07T06:16:27.574Z,16.42
2023-05-07T06:18:54.033Z,15.35
2023-05-07T06:21:20.458Z,16.63
2023-05-07T06:23:46.796Z,16.83
2023-05-07T06:26:13.283Z,15.82
2023-05-07T06:28:39.651Z,15.35
2023-05-07T06:31:17.160Z,15.50
2023-05-07T06:33:45.268Z,15.98
2023-05-07T06:36:11.682Z,15.68
2023-05-07T06:38:38.072Z,16.48
2023-05-07T06:41:04.472Z,17.33
2023-05-07T06:43:30.812Z,15.15
2023-05-07T06:45:57.297Z,15.52
2023-05-07T06:48:23.849Z,16.20
2023-05-07T06:50:50.379Z,16.27
2023-05-07T06:53:16.811Z,16.17
2023-05-07T06:55:43.191Z,16.35
2023-05-07T06:58:09.608Z,16.70
2023-05-07T07:00:36.143Z,15.32
2023-05-07T07:03:02.579Z,14.55
2023-05-07T07:05:29.188Z,14.23
2023-05-07T07:07:55.731Z,15.27
2023-05-07T07:10:22.899Z,14.43
2023-05-07T07:12:50.375Z,14.95
2023-05-07T07:15:17.516Z,15.02
2023-05-07T07:17:44.005Z,14.93
2023-05-07T07:20:12.265Z,15.00
2023-05-07T07:22:38.810Z,15.15
2023-05-07T07:25:05.609Z,14.50
2023-05-07T07:27:32.020Z,14.38
2023-05-07T07:29:58.365Z,14.65
2023-05-07T07:32:24.926Z,13.90
2023-05-07T07:34:51.333Z,14.18
2023-05-07T07:37:17.846Z,14.05
2023-05-07T07:39:44.397Z,14.13
2023-05-07T07:42:10.791Z,13.00
2023-05-07T07:44:37.249Z,14.60
2023-05-07T07:47:03.813Z,14.23
2023-05-07T07:49:30.256Z,14.43
2023-05-07T07:51:59.567Z,13.20
2023-05-07T07:54:26.697Z,13.43
2023-05-07T07:56:53.277Z,13.85
2023-05-07T07:59:20.035Z,13.27
2023-05-07T08:01:46.535Z,13.60
2023-05-07T08:04:13.080Z,13.38
2023-05-07T08:06:39.696Z,12.63
2023-05-07T08:09:06.108Z,12.43
2023-05-07T08:11:32.510Z,12.68
2023-05-07T08:13:59.116Z,13.10
2023-05-07T08:16:26.047Z,13.05
2023-05-07T08:18:52.435Z,12.52
2023-05-07T08:21:18.852Z,13.13
2023-05-07T08:23:45.733Z,12.70
2023-05-07T08:26:12.271Z,12.73
2023-05-07T08:28:38.730Z,12.75
2023-05-07T08:31:05.270Z,12.52
2023-05-07T08:33:32.107Z,12.70
2023-05-07T08:35:58.532Z,12.77
2023-05-07T08:38:25.006Z,12.38
2023-05-07T08:40:51.418Z,11.35
2023-05-07T08:43:19.274Z,11.55
2023-05-07T08:45:46.854Z,12.50
2023-05-07T08:48:18.139Z,11.73
2023-05-07T08:50:44.608Z,11.52
2023-05-07T08:53:11.032Z,11.32
2023-05-07T08:55:37.474Z,11.27
2023-05-07T08:58:04.927Z,12.32
2023-05-07T09:00:31.398Z,11.75
2023-05-07T09:02:57.867Z,11.75
2023-05-07T09:05:24.373Z,11.30
2023-05-07T09:07:53.971Z,12.15
2023-05-07T09:10:22.022Z,11.07
2023-05-07T09:12:48.936Z,10.48
2023-05-07T09:15:15.594Z,10.63
2023-05-07T09:17:43.335Z,10.77
2023-05-07T09:20:11.061Z,10.68
2023-05-07T09:22:38.403Z,10.60
2023-05-07T09:25:06.986Z,9.45
2023-05-07T09:27:33.426Z,10.35
2023-05-07T09:29:59.843Z,9.88
2023-05-07T09:32:28.191Z,9.63
2023-05-07T09:34:55.184Z,9.90
2023-05-07T09:37:21.623Z,10.10
2023-05-07T09:39:50.102Z,9.30
2023-05-07T09:42:16.531Z,9.32
2023-05-07T09:44:48.333Z,9.40
2023-05-07T09:47:20.498Z,8.63
2023-05-07T09:49:49.014Z,8.10
2023-05-07T09:52:15.997Z,8.25
2023-05-07T09:54:46.135Z,8.82
2023-05-07T09:57:17.397Z,8.40
2023-05-07T09:59:44.908Z,8.40
2023-05-07T10:02:14.019Z,8.05
2023-05-07T10:04:41.419Z,8.10
2023-05-07T10:07:08.736Z,7.43
2023-05-07T10:09:39.361Z,7.90
2023-05-07T10:12:07.113Z,8.07
2023-05-07T10:14:34.596Z,7.38
2023-05-07T10:17:02.530Z,7.35
2023-05-07T10:19:30.404Z,7.18
2023-05-07T10:22:04.342Z,7.40
2023-05-07T10:24:34.997Z,6.60
2023-05-07T10:27:03.784Z,6.93
2023-05-07T10:30:04.063Z,7.40
2023-05-07T10:32:39.894Z,7.40
2023-05-07T10:35:12.498Z,6.95
2023-05-07T10:37:39.959Z,7.22
2023-05-07T10:40:08.322Z,6.65
2023-05-07T10:42:35.314Z,6.43
2023-05-07T10:45:17.941Z,6.97
2023-05-07T10:48:27.986Z,6.57
2023-05-07T10:51:20.789Z,6.80
2023-05-07T10:53:47.721Z,6.80
2023-05-07T10:56:21.487Z,6.82
2023-05-07T10:58:48.303Z,7.53
2023-05-07T11:01:15.992Z,6.97
2023-05-07T11:04:27.169Z,6.50
2023-05-07T11:07:12.237Z,6.53
2023-05-07T11:09:53.606Z,6.47
2023-05-07T11:12:38.576Z,6.43
2023-05-07T11:15:09.928Z,6.45
2023-05-07T11:17:54.215Z,6.68
2023-05-07T11:20:21.433Z,6.68
2023-05-07T11:22:48.703Z,5.88
2023-05-07T11:25:20.171Z,6.47
2023-05-07T11:27:46.901Z,6.38
2023-05-07T11:30:22.851Z,6.30
2023-05-07T11:35:16.703Z,5.80
2023-05-07T11:37:45.840Z,5.55
2023-05-07T11:40:14.732Z,5.85
2023-05-07T11:42:45.101Z,5.95
2023-05-07T11:45:11.967Z,5.38
2023-05-07T11:47:38.747Z,6.05
2023-05-07T11:50:08.302Z,5.78
2023-05-07T11:52:35.815Z,5.72
2023-05-07T11:55:04.505Z,5.30
2023-05-07T11:57:31.143Z,5.60
2023-05-07T11:59:59.302Z,5.68
2023-05-07T12:02:26.802Z,5.95
2023-05-07T12:04:54.113Z,6.10
2023-05-07T12:07:20.855Z,5.47
2023-05-07T12:09:48.326Z,5.70
2023-05-07T12:12:27.409Z,5.30
2023-05-07T12:14:53.769Z,5.88
2023-05-07T12:17:21.155Z,6.13
2023-05-07T12:19:57.335Z,5.75
2023-05-07T12:22:23.769Z,5.47
2023-05-07T12:24:57.612Z,5.20
2023-05-07T12:27:24.274Z,5.82
2023-05-07T12:29:51.829Z,5.00
2023-05-07T12:32:21.959Z,5.07
2023-05-07T12:34:51.970Z,5.00
2023-05-07T12:37:27.544Z,5.63
2023-05-07T12:40:08.580Z,5.57
2023-05-07T12:42:39.516Z,5.30
2023-05-07T12:45:14.301Z,5.20
2023-05-07T12:47:48.501Z,5.22
2023-05-07T12:50:16.517Z,5.35
2023-05-07T12:52:45.803Z,5.45
2023-05-07T12:55:15.412Z,5.65
2023-05-07T12:57:49.520Z,5.10
2023-05-07T13:00:16.273Z,5.00
2023-05-07T13:02:47.609Z,4.93
2023-05-07T13:05:14.454Z,5.13
2023-05-07T13:07:41.754Z,4.78
2023-05-07T13:10:08.938Z,4.07
2023-05-07T13:12:35.975Z,4.28
2023-05-07T13:15:02.404Z,4.10
2023-05-07T13:17:28.851Z,3.95
2023-05-07T13:19:55.299Z,5.10
2023-05-07T13:22:21.638Z,4.57
2023-05-07T13:24:48.097Z,3.97
2023-05-07T13:27:14.495Z,4.57
2023-05-07T13:29:40.906Z,4.15
2023-05-07T13:32:07.373Z,4.47
2023-05-07T13:34:34.248Z,4.57
2023-05-07T13:37:00.614Z,4.38
2023-05-07T13:39:27.118Z,4.00
2023-05-07T13:41:53.615Z,4.40
2023-05-07T13:44:19.949Z,4.15
2023-05-07T13:46:46.514Z,4.13
2023-05-07T13:49:13.865Z,4.20
2023-05-07T13:51:40.348Z,4.38
2023-05-07T13:54:06.814Z,4.13
2023-05-07T13:56:33.519Z,4.30
2023-05-07T13:59:00.998Z,4.53
2023-05-07T14:01:28.449Z,4.47
2023-05-07T14:03:55.141Z,4.10
2023-05-07T14:06:21.549Z,4.22
2023-05-07T14:08:47.997Z,4.15
2023-05-07T14:11:14.397Z,4.35
2023-05-07T14:13:41.053Z,3.50
2023-05-07T14:16:07.493Z,3.95
2023-05-07T14:18:35.428Z,4.03
2023-05-07T14:21:01.887Z,3.50
2023-05-07T14:23:28.702Z,3.78
2023-05-07T14:25:58.130Z,3.75
2023-05-07T14:28:24.927Z,3.75
2023-05-07T14:30:51.310Z,3.30
2023-05-07T14:33:18.119Z,3.35
2023-05-07T14:35:48.944Z,3.88
2023-05-07T14:38:16.553Z,3.45
2023-05-07T14:40:43.208Z,3.47
2023-05-07T14:43:09.594Z,3.47
2023-05-07T14:45:36.010Z,3.63
2023-05-07T14:48:02.932Z,3.50
2023-05-07T14:50:29.318Z,4.07
2023-05-07T14:52:55.864Z,4.10
2023-05-07T14:55:22.422Z,3.45
2023-05-07T14:57:48.847Z,3.83
2023-05-07T15:00:15.294Z,3.85
2023-05-07T15:02:41.749Z,3.58
2023-05-07T15:05:08.415Z,3.28
2023-05-07T15:07:35.310Z,3.78
2023-05-07T15:10:01.921Z,3.55
2023-05-07T15:12:28.365Z,3.22
2023-05-07T15:14:54.833Z,3.22
2023-05-07T15:17:21.254Z,3.60
2023-05-07T15:19:47.666Z,3.35
2023-05-07T15:22:14.091Z,3.58
2023-05-07T15:24:41.886Z,3.20
2023-05-07T15:27:08.238Z,3.50
2023-05-07T15:29:34.638Z,3.85
2023-05-07T15:32:01.109Z,3.20
2023-05-07T15:34:28.309Z,3.50
2023-05-07T15:36:57.682Z,3.50
2023-05-07T15:39:25.097Z,3.40
2023-05-07T15:41:51.685Z,3.30
2023-05-07T15:44:18.107Z,3.22
2023-05-07T15:46:44.492Z,3.28
2023-05-07T15:49:11.493Z,3.20
2023-05-07T15:51:37.936Z,3.15
2023-05-07T15:54:04.488Z,3.20
2023-05-07T15:56:33.886Z,2.88
2023-05-07T15:59:00.749Z,3.00
2023-05-07T16:01:27.181Z,2.55
2023-05-07T16:03:53.668Z,3.35
2023-05-07T16:06:20.166Z,3.13
2023-05-07T16:08:46.514Z,3.70
2023-05-07T16:11:12.896Z,3.67
2023-05-07T16:13:39.269Z,3.45
2023-05-07T16:16:06.397Z,3.42
2023-05-07T16:18:33.600Z,3.50
2023-05-07T16:21:00.964Z,3.28
2023-05-07T16:23:27.550Z,3.35
2023-05-07T16:25:53.955Z,3.08
2023-05-07T16:28:20.593Z,3.45
2023-05-07T16:30:47.085Z,3.55
2023-05-07T16:33:13.490Z,3.90
2023-05-07T16:35:40.042Z,3.67
2023-05-07T16:38:10.290Z,3.97
2023-05-07T16:40:40.287Z,3.63
2023-05-07T16:43:06.658Z,4.18
2023-05-07T16:45:33.046Z,4.55
2023-05-07T16:47:59.609Z,4.70
2023-05-07T16:50:26.083Z,4.45
2023-05-07T16:52:52.452Z,4.65
2023-05-07T16:55:18.858Z,4.80
2023-05-07T16:57:45.365Z,4.63
2023-05-07T17:00:12.350Z,4.75
2023-05-07T17:02:38.878Z,5.43
2023-05-07T17:05:08.479Z,4.72
2023-05-07T17:07:35.304Z,4.63
2023-05-07T17:10:02.729Z,5.50
2023-05-07T17:12:47.764Z,5.00
2023-05-07T17:15:14.396Z,4.70
2023-05-07T17:17:41.867Z,4.65
2023-05-07T17:20:08.885Z,4.78
2023-05-07T17:22:35.368Z,4.82
2023-05-07T17:25:04.118Z,4.50
2023-05-07T17:27:40.072Z,4.72
2023-05-07T17:32:35.037Z,4.53
2023-05-07T17:35:01.820Z,5.25
2023-05-07T17:37:28.243Z,4.80
2023-05-07T17:39:54.778Z,4.80
2023-05-07T17:42:21.280Z,5.45
2023-05-07T17:44:47.679Z,5.15
2023-05-07T17:47:14.431Z,5.35
2023-05-07T17:49:41.876Z,5.32
2023-05-07T17:52:08.853Z,5.45
2023-05-07T17:54:35.243Z,5.28
2023-05-07T17:57:01.670Z,5.30
2023-05-07T17:59:28.773Z,5.53
2023-05-07T18:01:55.342Z,5.18
2023-05-07T18:04:21.888Z,5.75
2023-05-07T18:06:48.591Z,5.80
2023-05-07T18:09:15.203Z,6.45
2023-05-07T18:11:41.636Z,5.85
2023-05-07T18:14:08.116Z,5.88
2023-05-07T18:16:34.702Z,5.45
2023-05-07T18:19:02.239Z,5.85
2023-05-07T18:21:28.705Z,5.63
2023-05-07T18:23:55.058Z,5.18
2023-05-07T18:26:21.572Z,5.30
2023-05-07T18:28:47.968Z,5.78
2023-05-07T18:31:14.484Z,5.70
2023-05-07T18:33:40.887Z,6.05
2023-05-07T18:36:07.299Z,6.07
2023-05-07T18:38:34.007Z,6.57
2023-05-07T18:41:02.809Z,5.93
2023-05-07T18:43:29.241Z,5.88
2023-05-07T18:45:55.683Z,6.65
2023-05-07T18:48:22.172Z,6.47
2023-05-07T18:50:49.261Z,6.35
2023-05-07T18:53:15.733Z,6.55
2023-05-07T18:55:42.172Z,6.78
2023-05-07T18:58:08.617Z,6.93
2023-05-07T19:00:35.084Z,7.03
2023-05-07T19:03:01.618Z,6.93
2023-05-07T19:05:28.111Z,7.35
2023-05-07T19:07:54.526Z,7.38
2023-05-07T19:10:21.259Z,7.07
2023-05-07T19:12:47.810Z,7.30
2023-05-07T19:15:14.368Z,7.72
2023-05-07T19:17:40.755Z,7.53
2023-05-07T19:22:39.327Z,6.95
2023-05-07T19:25:06.367Z,7.65
2023-05-07T19:27:32.712Z,7.28
2023-05-07T19:29:59.238Z,7.70
2023-05-07T19:32:26.198Z,7.47
2023-05-07T19:34:52.854Z,7.40
2023-05-07T19:37:22.838Z,7.57
2023-05-07T19:39:49.363Z,7.65
2023-05-07T19:42:15.918Z,7.70
2023-05-07T19:44:42.406Z,7.65
2023-05-07T19:47:09.385Z,7.78
2023-05-07T19:49:36.013Z,8.05
2023-05-07T19:52:02.657Z,8.43
2023-05-07T19:54:29.273Z,7.90
2023-05-07T19:56:56.841Z,7.95
2023-05-07T19:59:24.056Z,8.43
2023-05-07T20:01:50.587Z,7.82
2023-05-07T20:04:17.058Z,7.60
2023-05-07T20:06:43.501Z,8.60
2023-05-07T20:09:12.634Z,8.68
2023-05-07T20:11:39.795Z,8.40
2023-05-07T20:14:06.199Z,8.95
2023-05-07T20:16:33.630Z,8.65
2023-05-07T20:19:00.403Z,8.75
2023-05-07T20:21:26.858Z,8.43
2023-05-07T20:23:54.238Z,8.68
2023-05-07T20:26:21.262Z,9.07
2023-05-07T20:28:47.709Z,8.60
2023-05-07T20:31:14.263Z,8.82
2023-05-07T20:33:41.000Z,8.80
2023-05-07T20:36:08.213Z,9.30
2023-05-07T20:38:34.529Z,9.55
2023-05-07T20:41:12.609Z,8.82
2023-05-07T20:43:39.018Z,9.10
2023-05-07T20:46:07.553Z,9.10
2023-05-07T20:48:34.292Z,8.98
2023-05-07T20:51:01.843Z,9.35
2023-05-07T20:53:29.839Z,9.68
2023-05-07T20:55:56.887Z,10.07
2023-05-07T20:58:26.531Z,9.30
2023-05-07T21:00:53.752Z,9.45
2023-05-07T21:03:20.670Z,9.93
2023-05-07T21:05:54.154Z,9.23
2023-05-07T21:08:21.028Z,9.40
2023-05-07T21:10:47.866Z,9.60
2023-05-07T21:13:14.965Z,10.35
2023-05-07T21:15:42.914Z,10.02
2023-05-07T21:18:12.665Z,10.30
2023-05-07T21:20:39.143Z,10.13
2023-05-07T21:23:05.780Z,9.93
2023-05-07T21:25:32.243Z,10.02
2023-05-07T21:27:58.619Z,9.80
2023-05-07T21:30:25.388Z,9.73
2023-05-07T21:32:52.928Z,9.60
2023-05-07T21:35:19.664Z,10.77
2023-05-07T21:37:46.124Z,10.00
2023-05-07T21:40:13.162Z,9.77
2023-05-07T21:42:39.909Z,9.80
2023-05-07T21:45:06.766Z,10.18
2023-05-07T21:47:33.378Z,9.77
2023-05-07T21:50:00.981Z,9.88
2023-05-07T21:52:27.399Z,9.45
2023-05-07T21:54:53.952Z,9.55
2023-05-07T21:57:21.108Z,9.50
2023-05-07T21:59:47.598Z,10.32
2023-05-07T22:02:13.988Z,9.95
2023-05-07T22:04:40.473Z,9.40
2023-05-07T22:07:06.864Z,9.30
2023-05-07T22:09:33.245Z,10.00
2023-05-07T22:11:59.659Z,9.95
2023-05-07T22:14:26.102Z,9.70
2023-05-07T22:16:52.608Z,9.35
2023-05-07T22:19:19.093Z,9.95
2023-05-07T22:21:45.608Z,9.32
2023-05-07T22:24:12.548Z,10.07
2023-05-07T22:26:38.901Z,9.75
2023-05-07T22:29:05.353Z,9.32
2023-05-07T22:31:31.781Z,9.27
2023-05-07T22:33:58.302Z,9.75
2023-05-07T22:36:24.724Z,9.68
2023-05-07T22:38:51.160Z,10.02
2023-05-07T22:41:17.717Z,10.15
2023-05-07T22:43:44.135Z,9.45
2023-05-07T22:46:10.810Z,9.50
2023-05-07T22:48:37.301Z,9.13
2023-05-07T22:51:04.047Z,9.18
2023-05-07T22:53:30.894Z,9.32
2023-05-07T22:55:57.641Z,9.35
2023-05-07T22:58:24.195Z,9.15
2023-05-07T23:00:50.635Z,8.77
2023-05-07T23:03:17.049Z,8.68
2023-05-07T23:05:44.235Z,9.05
2023-05-07T23:08:11.362Z,9.18
2023-05-07T23:10:37.772Z,9.10
2023-05-07T23:13:04.350Z,9.30
2023-05-07T23:15:31.892Z,9.02
2023-05-07T23:17:58.333Z,9.35
2023-05-07T23:20:24.966Z,9.82
2023-05-07T23:22:51.379Z,8.98
2023-05-07T23:25:18.129Z,8.93
2023-05-07T23:27:44.555Z,9.38
2023-05-07T23:30:11.715Z,8.98
2023-05-07T23:32:38.347Z,8.75
2023-05-07T23:35:05.212Z,9.10
2023-05-07T23:37:31.637Z,9.32
2023-05-07T23:39:57.967Z,9.18
2023-05-07T23:42:24.408Z,8.63
2023-05-07T23:44:50.750Z,9.07
2023-05-07T23:47:17.589Z,8.65
2023-05-07T23:49:43.992Z,8.30
2023-05-07T23:52:10.457Z,8.27
2023-05-07T23:54:37.176Z,8.23
2023-05-07T23:57:04.462Z,8.18
2023-05-07T23:59:30.856Z,7.68
